Nuertingen Klinik

METAR EDDS TAF EDDS
20 °C
°C
/
°C
41m
Idade
16:00:52
LT
14:00
UTC
0 ft

1.000

2.000

3.000

4.000

5.000

BKN 3.900
BKN 4.700
VFR
<?= Yii::t('app', 'Wind direction') ?> <?= Yii::t('app', 'of'); ?>
VAR
21:22
Pôr-do-sol
60%
Humidade
Tesoura de Vento
Fechado/Neve
Alcance visual RWY
Condição RWY
Vert. visibilidade
Min. visibilidade
CAVOK
Tendência
Correcção
Relatório especial
1014 hPa
QNH
METAR EDDS 131320Z AUTO VRB02KT 9999 BKN039 BKN047 20/12 Q1014 NOSIG
Nuvens quebradas
0 kt
0 kt
16:00
VFR
5 kt
17:00
VFR
5 kt
18:00
VFR
5 kt
19:00
VFR
5 kt
20:00
VFR
5 kt
21:00
VFR
3 kt
22:00
VFR
3 kt
10 km+
Visibilidade
3.900 ft
Tecto
2 kt
Vento
metar-taf.com/DE-0872

Metar-Taf.com

Decodificador visual